Monterey Peninsula Airport
KMRY : rendu visible

Aérodrome :











RETROUVEZ-NOUS SUR...

 
LOGIN :

S'inscrire | Disclaimer

   EN    FR    IT 

 









Légende :    VFR   VFR Marginal   IFR   IFR Intensif   IFR Très Intensif
Visi : 
Plafond : 
>= 8 km
>= 3000ft
5 à 8 km
1000 à 3000 ft
1500m à 5 km
500 à 1000 ft
800 à 1500m
200 à 500 ft
< 800m
< 200 ft
Symboles :   Orages  Brouillard  Fortes neiges  Fortes précipitations  Vent > 20 kt






- Altitude de l'aérodrome : 257 ft
- Code IATA : MRY


KMRY - Monterey Peninsula

DERNIER METAR :
  • 200754Z AUTO 25003KT 7SM R10R/5500VP6000FT CLR A2992 RMK AO2 SLPNO $

METARs EXPIRÉS :
  • 200654Z AUTO 00000KT 10SM CLR A2992 RMK AO2 SLPNO $
  • 200554Z AUTO 00000KT 10SM CLR A2992 RMK AO2 SLPNO 57007 $

TAF KMRY
Valide du 20 à 06h jusqu'au 21 à 06h UTC


200539Z 2006/2106 VRB03KT P6SM FEW009
FM200900 VRB03KT P6SM BKN007
FM201200 VRB03KT 4SM BR OVC004
FM201600 VRB03KT P6SM FEW008 SCT011
FM202000 29008KT P6SM SKC
FM210300 VRB05KT P6SM BKN010
FIR KZOA / Amérique du Nord



MET'MAP, la Météo Aéronautique d'un coup d'oeil ! - Copyright ORBIFLY Décembre 2007 - Disclaimer

ORBIFLY MET'MAP TEAM :

Programmation & Développement : Alexandra Zaïnal
Sur une idée originale de : Baudouin d'Aumeries
Assistance à la programmation : Marc-Olivier Méhu
Soutien technique & logistique : Manuel Goepfert

Contact : metmap@orbifly.com




SOURCES & CREDITS :

   NOAA       Earth
Advisory